sensor_id;sensor_type;location;lat;lon;timestamp;P1;durP1;ratioP1;P2;durP2;ratioP2
51384;SDS011;37478;55.682;37.462;2024-03-02T00:02:11;45.35;;;23.75;;
51384;SDS011;37478;55.682;37.462;2024-03-02T00:04:37;50.55;;;21.75;;
51384;SDS011;37478;55.682;37.462;2024-03-02T00:07:02;47.65;;;23.60;;
51384;SDS011;37478;55.682;37.462;2024-03-02T00:09:28;54.28;;;25.95;;
51384;SDS011;37478;55.682;37.462;2024-03-02T00:11:54;44.58;;;22.75;;
51384;SDS011;37478;55.682;37.462;2024-03-02T00:14:19;47.95;;;24.70;;
51384;SDS011;37478;55.682;37.462;2024-03-02T00:16:45;52.95;;;23.67;;
51384;SDS011;37478;55.682;37.462;2024-03-02T00:19:10;44.67;;;23.52;;
51384;SDS011;37478;55.682;37.462;2024-03-02T00:21:36;58.25;;;23.77;;
51384;SDS011;37478;55.682;37.462;2024-03-02T00:24:04;59.10;;;26.13;;
51384;SDS011;37478;55.682;37.462;2024-03-02T00:26:32;56.85;;;25.73;;
51384;SDS011;37478;55.682;37.462;2024-03-02T00:28:57;49.50;;;24.77;;
51384;SDS011;37478;55.682;37.462;2024-03-02T00:31:24;51.90;;;24.45;;
51384;SDS011;37478;55.682;37.462;2024-03-02T00:33:50;47.20;;;22.30;;
51384;SDS011;37478;55.682;37.462;2024-03-02T00:36:16;44.03;;;22.33;;
51384;SDS011;37478;55.682;37.462;2024-03-02T00:38:47;42.15;;;22.63;;
51384;SDS011;37478;55.682;37.462;2024-03-02T00:41:17;57.22;;;25.02;;
51384;SDS011;37478;55.682;37.462;2024-03-02T00:43:56;54.35;;;22.10;;
51384;SDS011;37478;55.682;37.462;2024-03-02T00:46:22;46.28;;;21.98;;
51384;SDS011;37478;55.682;37.462;2024-03-02T00:48:55;49.17;;;24.98;;
51384;SDS011;37478;55.682;37.462;2024-03-02T00:51:21;52.97;;;25.08;;
51384;SDS011;37478;55.682;37.462;2024-03-02T00:53:47;54.10;;;23.90;;
51384;SDS011;37478;55.682;37.462;2024-03-02T00:56:13;51.65;;;24.88;;
51384;SDS011;37478;55.682;37.462;2024-03-02T00:58:39;47.13;;;23.65;;
51384;SDS011;37478;55.682;37.462;2024-03-02T01:01:04;47.28;;;24.88;;
51384;SDS011;37478;55.682;37.462;2024-03-02T01:03:31;47.28;;;24.73;;
51384;SDS011;37478;55.682;37.462;2024-03-02T01:05:56;54.25;;;24.73;;
51384;SDS011;37478;55.682;37.462;2024-03-02T01:08:22;47.47;;;24.58;;
51384;SDS011;37478;55.682;37.462;2024-03-02T01:10:47;57.80;;;23.75;;
51384;SDS011;37478;55.682;37.462;2024-03-02T01:13:12;53.50;;;26.10;;
51384;SDS011;37478;55.682;37.462;2024-03-02T01:15:38;50.08;;;25.55;;
51384;SDS011;37478;55.682;37.462;2024-03-02T01:18:03;47.58;;;23.83;;
51384;SDS011;37478;55.682;37.462;2024-03-02T01:20:29;49.70;;;24.45;;
51384;SDS011;37478;55.682;37.462;2024-03-02T01:22:54;46.10;;;23.00;;
51384;SDS011;37478;55.682;37.462;2024-03-02T01:25:20;48.38;;;22.83;;
51384;SDS011;37478;55.682;37.462;2024-03-02T01:27:45;51.72;;;23.92;;
51384;SDS011;37478;55.682;37.462;2024-03-02T01:30:11;49.80;;;25.45;;
51384;SDS011;37478;55.682;37.462;2024-03-02T01:32:37;59.13;;;24.08;;
51384;SDS011;37478;55.682;37.462;2024-03-02T01:35:03;51.08;;;25.77;;
51384;SDS011;37478;55.682;37.462;2024-03-02T01:37:29;50.38;;;25.63;;
51384;SDS011;37478;55.682;37.462;2024-03-02T01:39:54;55.42;;;27.63;;
51384;SDS011;37478;55.682;37.462;2024-03-02T01:42:19;59.33;;;27.30;;
51384;SDS011;37478;55.682;37.462;2024-03-02T01:44:45;54.85;;;26.77;;
51384;SDS011;37478;55.682;37.462;2024-03-02T01:47:10;59.10;;;26.15;;
51384;SDS011;37478;55.682;37.462;2024-03-02T01:49:35;62.35;;;25.63;;
51384;SDS011;37478;55.682;37.462;2024-03-02T01:52:01;52.85;;;25.83;;
51384;SDS011;37478;55.682;37.462;2024-03-02T01:54:26;52.28;;;27.52;;
51384;SDS011;37478;55.682;37.462;2024-03-02T01:56:52;62.88;;;27.80;;
51384;SDS011;37478;55.682;37.462;2024-03-02T01:59:18;58.53;;;26.17;;
51384;SDS011;37478;55.682;37.462;2024-03-02T02:01:43;49.03;;;26.05;;
51384;SDS011;37478;55.682;37.462;2024-03-02T02:04:08;48.35;;;26.60;;
51384;SDS011;37478;55.682;37.462;2024-03-02T02:06:34;55.25;;;27.55;;
51384;SDS011;37478;55.682;37.462;2024-03-02T02:08:59;58.28;;;27.35;;
51384;SDS011;37478;55.682;37.462;2024-03-02T02:11:24;50.85;;;26.67;;
51384;SDS011;37478;55.682;37.462;2024-03-02T02:13:50;58.25;;;26.83;;
51384;SDS011;37478;55.682;37.462;2024-03-02T02:16:15;57.08;;;26.15;;
51384;SDS011;37478;55.682;37.462;2024-03-02T02:18:40;49.58;;;25.77;;
51384;SDS011;37478;55.682;37.462;2024-03-02T02:21:06;63.53;;;27.83;;
51384;SDS011;37478;55.682;37.462;2024-03-02T02:23:31;57.70;;;28.30;;
51384;SDS011;37478;55.682;37.462;2024-03-02T02:25:56;53.97;;;25.70;;
51384;SDS011;37478;55.682;37.462;2024-03-02T02:28:22;53.33;;;27.33;;
51384;SDS011;37478;55.682;37.462;2024-03-02T02:30:47;51.08;;;26.90;;
51384;SDS011;37478;55.682;37.462;2024-03-02T02:33:12;54.33;;;26.60;;
51384;SDS011;37478;55.682;37.462;2024-03-02T02:35:38;57.65;;;26.92;;
51384;SDS011;37478;55.682;37.462;2024-03-02T02:38:03;58.30;;;25.08;;
51384;SDS011;37478;55.682;37.462;2024-03-02T02:40:29;55.50;;;26.23;;
51384;SDS011;37478;55.682;37.462;2024-03-02T02:42:55;58.20;;;27.13;;
51384;SDS011;37478;55.682;37.462;2024-03-02T02:45:21;52.33;;;24.92;;
51384;SDS011;37478;55.682;37.462;2024-03-02T02:47:46;56.03;;;27.27;;
51384;SDS011;37478;55.682;37.462;2024-03-02T02:50:12;49.20;;;25.67;;
51384;SDS011;37478;55.682;37.462;2024-03-02T02:52:38;54.40;;;26.08;;
51384;SDS011;37478;55.682;37.462;2024-03-02T02:55:05;57.33;;;26.65;;
51384;SDS011;37478;55.682;37.462;2024-03-02T02:57:31;54.25;;;26.58;;
51384;SDS011;37478;55.682;37.462;2024-03-02T03:00:00;57.22;;;27.63;;
51384;SDS011;37478;55.682;37.462;2024-03-02T03:02:27;53.83;;;26.77;;
51384;SDS011;37478;55.682;37.462;2024-03-02T03:04:52;51.05;;;25.88;;
51384;SDS011;37478;55.682;37.462;2024-03-02T03:07:18;53.10;;;26.85;;
51384;SDS011;37478;55.682;37.462;2024-03-02T03:09:43;56.50;;;27.08;;
51384;SDS011;37478;55.682;37.462;2024-03-02T03:12:08;55.42;;;26.27;;
51384;SDS011;37478;55.682;37.462;2024-03-02T03:14:34;53.15;;;25.75;;
51384;SDS011;37478;55.682;37.462;2024-03-02T03:16:59;52.28;;;26.70;;
51384;SDS011;37478;55.682;37.462;2024-03-02T03:19:26;56.28;;;28.27;;
51384;SDS011;37478;55.682;37.462;2024-03-02T03:21:51;56.75;;;25.20;;
51384;SDS011;37478;55.682;37.462;2024-03-02T03:24:16;55.25;;;25.73;;
51384;SDS011;37478;55.682;37.462;2024-03-02T03:26:42;52.80;;;25.08;;
51384;SDS011;37478;55.682;37.462;2024-03-02T03:29:07;60.90;;;26.92;;
51384;SDS011;37478;55.682;37.462;2024-03-02T03:31:32;51.33;;;26.27;;
51384;SDS011;37478;55.682;37.462;2024-03-02T03:33:58;56.83;;;26.45;;
51384;SDS011;37478;55.682;37.462;2024-03-02T03:36:23;58.05;;;27.92;;
51384;SDS011;37478;55.682;37.462;2024-03-02T03:38:49;51.60;;;25.60;;
51384;SDS011;37478;55.682;37.462;2024-03-02T03:41:14;63.05;;;27.60;;
51384;SDS011;37478;55.682;37.462;2024-03-02T03:43:40;63.05;;;26.83;;
51384;SDS011;37478;55.682;37.462;2024-03-02T03:46:05;48.85;;;25.38;;
51384;SDS011;37478;55.682;37.462;2024-03-02T03:48:31;58.53;;;27.23;;
51384;SDS011;37478;55.682;37.462;2024-03-02T03:50:56;52.83;;;26.42;;
51384;SDS011;37478;55.682;37.462;2024-03-02T03:53:22;53.78;;;28.27;;
51384;SDS011;37478;55.682;37.462;2024-03-02T03:55:47;52.33;;;26.48;;
51384;SDS011;37478;55.682;37.462;2024-03-02T03:58:14;62.45;;;27.63;;
51384;SDS011;37478;55.682;37.462;2024-03-02T04:00:41;50.72;;;25.45;;
51384;SDS011;37478;55.682;37.462;2024-03-02T04:03:06;47.90;;;26.15;;
51384;SDS011;37478;55.682;37.462;2024-03-02T04:05:32;62.95;;;27.75;;
51384;SDS011;37478;55.682;37.462;2024-03-02T04:07:57;52.72;;;27.00;;
51384;SDS011;37478;55.682;37.462;2024-03-02T04:10:22;58.75;;;27.73;;
51384;SDS011;37478;55.682;37.462;2024-03-02T04:12:49;60.35;;;27.92;;
51384;SDS011;37478;55.682;37.462;2024-03-02T04:15:15;54.90;;;27.55;;
51384;SDS011;37478;55.682;37.462;2024-03-02T04:17:40;60.33;;;28.02;;
51384;SDS011;37478;55.682;37.462;2024-03-02T04:20:06;64.10;;;28.58;;
51384;SDS011;37478;55.682;37.462;2024-03-02T04:22:32;62.15;;;27.33;;
51384;SDS011;37478;55.682;37.462;2024-03-02T04:24:58;50.33;;;26.00;;
51384;SDS011;37478;55.682;37.462;2024-03-02T04:27:23;64.68;;;27.23;;
51384;SDS011;37478;55.682;37.462;2024-03-02T04:29:48;53.42;;;27.30;;
51384;SDS011;37478;55.682;37.462;2024-03-02T04:32:14;60.22;;;29.70;;
51384;SDS011;37478;55.682;37.462;2024-03-02T04:34:40;53.15;;;27.05;;
51384;SDS011;37478;55.682;37.462;2024-03-02T04:37:05;60.05;;;27.77;;
51384;SDS011;37478;55.682;37.462;2024-03-02T04:39:31;49.67;;;26.58;;
51384;SDS011;37478;55.682;37.462;2024-03-02T04:41:56;58.45;;;27.02;;
51384;SDS011;37478;55.682;37.462;2024-03-02T04:44:23;53.00;;;28.00;;
51384;SDS011;37478;55.682;37.462;2024-03-02T04:46:48;55.60;;;27.35;;
51384;SDS011;37478;55.682;37.462;2024-03-02T04:49:14;51.72;;;27.73;;
51384;SDS011;37478;55.682;37.462;2024-03-02T04:51:39;51.97;;;27.73;;
51384;SDS011;37478;55.682;37.462;2024-03-02T04:54:04;68.85;;;30.38;;
51384;SDS011;37478;55.682;37.462;2024-03-02T04:56:30;69.63;;;28.80;;
51384;SDS011;37478;55.682;37.462;2024-03-02T04:59:24;55.33;;;29.02;;
51384;SDS011;37478;55.682;37.462;2024-03-02T05:01:50;60.72;;;30.92;;
51384;SDS011;37478;55.682;37.462;2024-03-02T05:04:15;51.20;;;27.83;;
51384;SDS011;37478;55.682;37.462;2024-03-02T05:06:41;61.50;;;29.33;;
51384;SDS011;37478;55.682;37.462;2024-03-02T05:09:07;54.15;;;27.63;;
51384;SDS011;37478;55.682;37.462;2024-03-02T05:11:32;54.03;;;28.50;;
51384;SDS011;37478;55.682;37.462;2024-03-02T05:14:04;66.35;;;31.30;;
51384;SDS011;37478;55.682;37.462;2024-03-02T05:16:32;57.80;;;30.48;;
51384;SDS011;37478;55.682;37.462;2024-03-02T05:18:57;55.95;;;27.38;;
51384;SDS011;37478;55.682;37.462;2024-03-02T05:21:23;64.10;;;30.90;;
51384;SDS011;37478;55.682;37.462;2024-03-02T05:23:48;59.03;;;29.50;;
51384;SDS011;37478;55.682;37.462;2024-03-02T05:26:13;54.67;;;28.05;;
51384;SDS011;37478;55.682;37.462;2024-03-02T05:28:39;68.72;;;29.27;;
51384;SDS011;37478;55.682;37.462;2024-03-02T05:31:04;64.40;;;30.30;;
51384;SDS011;37478;55.682;37.462;2024-03-02T05:33:30;63.10;;;27.92;;
51384;SDS011;37478;55.682;37.462;2024-03-02T05:35:56;66.25;;;29.08;;
51384;SDS011;37478;55.682;37.462;2024-03-02T05:38:22;68.13;;;28.80;;
51384;SDS011;37478;55.682;37.462;2024-03-02T05:40:47;70.90;;;30.70;;
51384;SDS011;37478;55.682;37.462;2024-03-02T05:43:13;54.60;;;27.10;;
51384;SDS011;37478;55.682;37.462;2024-03-02T05:45:38;57.30;;;27.40;;
51384;SDS011;37478;55.682;37.462;2024-03-02T05:48:05;53.90;;;26.77;;
51384;SDS011;37478;55.682;37.462;2024-03-02T05:50:30;58.38;;;28.70;;
51384;SDS011;37478;55.682;37.462;2024-03-02T05:52:55;52.95;;;28.88;;
51384;SDS011;37478;55.682;37.462;2024-03-02T05:55:21;51.65;;;28.58;;
51384;SDS011;37478;55.682;37.462;2024-03-02T05:57:47;62.53;;;30.55;;
51384;SDS011;37478;55.682;37.462;2024-03-02T06:00:24;60.72;;;28.02;;
51384;SDS011;37478;55.682;37.462;2024-03-02T06:02:49;66.72;;;30.40;;
51384;SDS011;37478;55.682;37.462;2024-03-02T06:05:15;67.43;;;27.02;;
51384;SDS011;37478;55.682;37.462;2024-03-02T06:07:42;65.53;;;30.15;;
51384;SDS011;37478;55.682;37.462;2024-03-02T06:10:08;64.47;;;28.90;;
51384;SDS011;37478;55.682;37.462;2024-03-02T06:12:34;64.45;;;28.63;;
51384;SDS011;37478;55.682;37.462;2024-03-02T06:14:59;60.95;;;28.63;;
51384;SDS011;37478;55.682;37.462;2024-03-02T06:17:24;60.15;;;28.42;;
51384;SDS011;37478;55.682;37.462;2024-03-02T06:19:50;61.08;;;28.75;;
51384;SDS011;37478;55.682;37.462;2024-03-02T06:22:15;66.63;;;30.75;;
51384;SDS011;37478;55.682;37.462;2024-03-02T06:24:40;54.38;;;28.85;;
51384;SDS011;37478;55.682;37.462;2024-03-02T06:27:06;60.75;;;30.98;;
51384;SDS011;37478;55.682;37.462;2024-03-02T06:29:34;64.65;;;29.08;;
51384;SDS011;37478;55.682;37.462;2024-03-02T06:31:59;62.75;;;29.10;;
51384;SDS011;37478;55.682;37.462;2024-03-02T06:34:25;55.25;;;28.23;;
51384;SDS011;37478;55.682;37.462;2024-03-02T06:36:50;58.83;;;28.88;;
51384;SDS011;37478;55.682;37.462;2024-03-02T06:39:15;62.10;;;31.27;;
51384;SDS011;37478;55.682;37.462;2024-03-02T06:41:41;65.10;;;31.08;;
51384;SDS011;37478;55.682;37.462;2024-03-02T06:44:07;64.28;;;30.52;;
51384;SDS011;37478;55.682;37.462;2024-03-02T06:46:33;59.15;;;31.30;;
51384;SDS011;37478;55.682;37.462;2024-03-02T06:48:58;78.53;;;32.38;;
51384;SDS011;37478;55.682;37.462;2024-03-02T06:51:23;64.40;;;33.33;;
51384;SDS011;37478;55.682;37.462;2024-03-02T06:53:49;56.30;;;29.60;;
51384;SDS011;37478;55.682;37.462;2024-03-02T06:56:14;69.40;;;32.30;;
51384;SDS011;37478;55.682;37.462;2024-03-02T06:58:39;62.60;;;30.55;;
51384;SDS011;37478;55.682;37.462;2024-03-02T07:01:05;61.53;;;32.22;;
51384;SDS011;37478;55.682;37.462;2024-03-02T07:03:30;62.83;;;31.25;;
51384;SDS011;37478;55.682;37.462;2024-03-02T07:05:55;60.33;;;31.65;;
51384;SDS011;37478;55.682;37.462;2024-03-02T07:08:22;69.68;;;33.45;;
51384;SDS011;37478;55.682;37.462;2024-03-02T07:10:47;73.38;;;33.05;;
51384;SDS011;37478;55.682;37.462;2024-03-02T07:13:12;71.10;;;33.72;;
51384;SDS011;37478;55.682;37.462;2024-03-02T07:15:38;61.17;;;32.55;;
51384;SDS011;37478;55.682;37.462;2024-03-02T07:18:22;62.42;;;33.20;;
51384;SDS011;37478;55.682;37.462;2024-03-02T07:20:47;66.95;;;31.65;;
51384;SDS011;37478;55.682;37.462;2024-03-02T07:23:14;61.90;;;31.67;;
51384;SDS011;37478;55.682;37.462;2024-03-02T07:25:39;64.90;;;33.42;;
51384;SDS011;37478;55.682;37.462;2024-03-02T07:28:05;65.95;;;33.60;;
51384;SDS011;37478;55.682;37.462;2024-03-02T07:30:32;67.90;;;33.35;;
51384;SDS011;37478;55.682;37.462;2024-03-02T07:32:57;67.03;;;33.58;;
51384;SDS011;37478;55.682;37.462;2024-03-02T07:35:23;68.35;;;32.45;;
51384;SDS011;37478;55.682;37.462;2024-03-02T07:37:52;70.97;;;34.72;;
51384;SDS011;37478;55.682;37.462;2024-03-02T07:40:18;74.38;;;33.47;;
51384;SDS011;37478;55.682;37.462;2024-03-02T07:42:43;68.18;;;32.80;;
51384;SDS011;37478;55.682;37.462;2024-03-02T07:45:08;78.15;;;33.40;;
51384;SDS011;37478;55.682;37.462;2024-03-02T07:47:34;67.93;;;33.13;;
51384;SDS011;37478;55.682;37.462;2024-03-02T07:49:59;69.68;;;35.10;;
51384;SDS011;37478;55.682;37.462;2024-03-02T07:52:25;74.60;;;36.35;;
51384;SDS011;37478;55.682;37.462;2024-03-02T07:54:50;77.80;;;41.00;;
51384;SDS011;37478;55.682;37.462;2024-03-02T07:57:16;72.15;;;38.78;;
51384;SDS011;37478;55.682;37.462;2024-03-02T07:59:41;91.18;;;44.15;;
51384;SDS011;37478;55.682;37.462;2024-03-02T08:02:07;83.22;;;40.88;;
51384;SDS011;37478;55.682;37.462;2024-03-02T08:04:33;86.25;;;44.05;;
51384;SDS011;37478;55.682;37.462;2024-03-02T08:06:58;87.32;;;43.55;;
51384;SDS011;37478;55.682;37.462;2024-03-02T08:09:24;79.40;;;41.63;;
51384;SDS011;37478;55.682;37.462;2024-03-02T08:11:49;95.13;;;45.00;;
51384;SDS011;37478;55.682;37.462;2024-03-02T08:14:14;82.40;;;41.17;;
51384;SDS011;37478;55.682;37.462;2024-03-02T08:16:40;86.25;;;43.90;;
51384;SDS011;37478;55.682;37.462;2024-03-02T08:19:05;80.30;;;43.83;;
51384;SDS011;37478;55.682;37.462;2024-03-02T08:21:31;84.47;;;39.10;;
51384;SDS011;37478;55.682;37.462;2024-03-02T08:23:57;84.72;;;44.70;;
51384;SDS011;37478;55.682;37.462;2024-03-02T08:26:23;83.40;;;42.00;;
51384;SDS011;37478;55.682;37.462;2024-03-02T08:28:48;82.65;;;39.15;;
51384;SDS011;37478;55.682;37.462;2024-03-02T08:31:14;74.25;;;40.45;;
51384;SDS011;37478;55.682;37.462;2024-03-02T08:33:39;75.40;;;38.88;;
51384;SDS011;37478;55.682;37.462;2024-03-02T08:36:05;74.95;;;37.10;;
51384;SDS011;37478;55.682;37.462;2024-03-02T08:38:31;73.28;;;35.70;;
51384;SDS011;37478;55.682;37.462;2024-03-02T08:40:56;73.00;;;35.80;;
51384;SDS011;37478;55.682;37.462;2024-03-02T08:43:22;100.13;;;37.30;;
51384;SDS011;37478;55.682;37.462;2024-03-02T08:45:50;73.68;;;36.42;;
51384;SDS011;37478;55.682;37.462;2024-03-02T08:48:16;74.40;;;34.15;;
51384;SDS011;37478;55.682;37.462;2024-03-02T08:50:41;70.00;;;35.17;;
51384;SDS011;37478;55.682;37.462;2024-03-02T08:53:06;66.80;;;35.42;;
51384;SDS011;37478;55.682;37.462;2024-03-02T08:55:32;73.05;;;35.15;;
51384;SDS011;37478;55.682;37.462;2024-03-02T08:57:57;72.38;;;35.05;;
51384;SDS011;37478;55.682;37.462;2024-03-02T09:00:23;67.28;;;36.13;;
51384;SDS011;37478;55.682;37.462;2024-03-02T09:02:48;76.50;;;35.35;;
51384;SDS011;37478;55.682;37.462;2024-03-02T09:05:14;65.07;;;33.60;;
51384;SDS011;37478;55.682;37.462;2024-03-02T09:07:39;63.33;;;32.58;;
51384;SDS011;37478;55.682;37.462;2024-03-02T09:10:05;72.30;;;31.48;;
51384;SDS011;37478;55.682;37.462;2024-03-02T09:12:31;62.58;;;32.42;;
51384;SDS011;37478;55.682;37.462;2024-03-02T09:14:56;64.32;;;30.35;;
51384;SDS011;37478;55.682;37.462;2024-03-02T09:17:22;69.40;;;34.50;;
51384;SDS011;37478;55.682;37.462;2024-03-02T09:19:48;66.22;;;32.10;;
51384;SDS011;37478;55.682;37.462;2024-03-02T09:22:13;63.50;;;32.50;;
51384;SDS011;37478;55.682;37.462;2024-03-02T09:24:38;68.57;;;35.40;;
51384;SDS011;37478;55.682;37.462;2024-03-02T09:27:04;65.97;;;34.95;;
51384;SDS011;37478;55.682;37.462;2024-03-02T09:29:30;64.82;;;32.67;;
51384;SDS011;37478;55.682;37.462;2024-03-02T09:31:56;70.70;;;33.22;;
51384;SDS011;37478;55.682;37.462;2024-03-02T09:34:21;69.55;;;35.22;;
51384;SDS011;37478;55.682;37.462;2024-03-02T09:36:47;71.95;;;34.63;;
51384;SDS011;37478;55.682;37.462;2024-03-02T09:39:12;69.65;;;33.95;;
51384;SDS011;37478;55.682;37.462;2024-03-02T09:41:38;68.30;;;35.28;;
51384;SDS011;37478;55.682;37.462;2024-03-02T09:44:04;67.07;;;33.70;;
51384;SDS011;37478;55.682;37.462;2024-03-02T09:46:29;67.88;;;34.28;;
51384;SDS011;37478;55.682;37.462;2024-03-02T09:48:55;59.00;;;29.30;;
51384;SDS011;37478;55.682;37.462;2024-03-02T09:51:20;57.50;;;29.98;;
51384;SDS011;37478;55.682;37.462;2024-03-02T09:53:46;62.13;;;28.40;;
51384;SDS011;37478;55.682;37.462;2024-03-02T09:56:12;61.38;;;28.30;;
51384;SDS011;37478;55.682;37.462;2024-03-02T09:58:38;57.97;;;28.70;;
51384;SDS011;37478;55.682;37.462;2024-03-02T10:01:05;54.80;;;26.70;;
51384;SDS011;37478;55.682;37.462;2024-03-02T10:03:31;50.83;;;25.85;;
51384;SDS011;37478;55.682;37.462;2024-03-02T10:06:18;44.45;;;23.33;;
51384;SDS011;37478;55.682;37.462;2024-03-02T10:08:43;50.60;;;26.33;;
51384;SDS011;37478;55.682;37.462;2024-03-02T10:11:09;55.05;;;25.95;;
51384;SDS011;37478;55.682;37.462;2024-03-02T10:13:34;50.88;;;25.67;;
51384;SDS011;37478;55.682;37.462;2024-03-02T10:15:59;61.35;;;27.75;;
51384;SDS011;37478;55.682;37.462;2024-03-02T10:18:36;52.97;;;27.20;;
51384;SDS011;37478;55.682;37.462;2024-03-02T10:21:13;62.35;;;30.00;;
51384;SDS011;37478;55.682;37.462;2024-03-02T10:23:40;58.00;;;27.88;;
51384;SDS011;37478;55.682;37.462;2024-03-02T10:26:17;60.85;;;28.17;;
51384;SDS011;37478;55.682;37.462;2024-03-02T10:28:46;55.53;;;26.90;;
51384;SDS011;37478;55.682;37.462;2024-03-02T10:31:12;67.50;;;29.45;;
51384;SDS011;37478;55.682;37.462;2024-03-02T10:33:38;59.80;;;25.95;;
51384;SDS011;37478;55.682;37.462;2024-03-02T10:36:03;57.25;;;29.40;;
51384;SDS011;37478;55.682;37.462;2024-03-02T10:38:29;61.83;;;27.60;;
51384;SDS011;37478;55.682;37.462;2024-03-02T10:40:55;64.43;;;30.50;;
51384;SDS011;37478;55.682;37.462;2024-03-02T10:43:23;60.13;;;28.80;;
51384;SDS011;37478;55.682;37.462;2024-03-02T10:45:51;54.55;;;27.38;;
51384;SDS011;37478;55.682;37.462;2024-03-02T10:48:17;61.50;;;27.58;;
51384;SDS011;37478;55.682;37.462;2024-03-02T10:50:43;59.28;;;28.63;;
51384;SDS011;37478;55.682;37.462;2024-03-02T10:53:08;55.85;;;29.65;;
51384;SDS011;37478;55.682;37.462;2024-03-02T10:55:34;58.00;;;30.38;;
51384;SDS011;37478;55.682;37.462;2024-03-02T10:57:59;52.95;;;28.27;;
51384;SDS011;37478;55.682;37.462;2024-03-02T11:00:27;56.05;;;28.30;;
51384;SDS011;37478;55.682;37.462;2024-03-02T11:03:01;61.22;;;29.25;;
51384;SDS011;37478;55.682;37.462;2024-03-02T11:05:29;59.38;;;29.50;;
51384;SDS011;37478;55.682;37.462;2024-03-02T11:08:02;63.70;;;29.58;;
51384;SDS011;37478;55.682;37.462;2024-03-02T11:10:30;62.40;;;30.95;;
51384;SDS011;37478;55.682;37.462;2024-03-02T11:13:00;61.83;;;32.15;;
51384;SDS011;37478;55.682;37.462;2024-03-02T11:15:27;52.50;;;28.58;;
51384;SDS011;37478;55.682;37.462;2024-03-02T11:17:52;59.45;;;27.10;;
51384;SDS011;37478;55.682;37.462;2024-03-02T11:20:18;55.80;;;28.95;;
51384;SDS011;37478;55.682;37.462;2024-03-02T11:22:45;58.08;;;28.00;;
51384;SDS011;37478;55.682;37.462;2024-03-02T11:25:23;56.63;;;28.95;;
51384;SDS011;37478;55.682;37.462;2024-03-02T11:33:02;54.17;;;29.15;;
51384;SDS011;37478;55.682;37.462;2024-03-02T11:35:40;51.72;;;28.42;;
51384;SDS011;37478;55.682;37.462;2024-03-02T11:38:08;53.70;;;28.92;;
51384;SDS011;37478;55.682;37.462;2024-03-02T11:40:34;53.70;;;29.17;;
51384;SDS011;37478;55.682;37.462;2024-03-02T11:42:59;52.90;;;28.60;;
51384;SDS011;37478;55.682;37.462;2024-03-02T11:45:26;54.58;;;27.25;;
51384;SDS011;37478;55.682;37.462;2024-03-02T11:47:52;52.13;;;26.08;;
51384;SDS011;37478;55.682;37.462;2024-03-02T11:53:06;51.20;;;24.30;;
51384;SDS011;37478;55.682;37.462;2024-03-02T11:55:34;48.42;;;26.90;;
51384;SDS011;37478;55.682;37.462;2024-03-02T11:58:00;45.13;;;25.15;;
51384;SDS011;37478;55.682;37.462;2024-03-02T12:00:26;47.45;;;25.05;;
51384;SDS011;37478;55.682;37.462;2024-03-02T12:03:01;45.15;;;24.45;;
51384;SDS011;37478;55.682;37.462;2024-03-02T12:05:27;44.83;;;22.85;;
51384;SDS011;37478;55.682;37.462;2024-03-02T12:08:03;44.20;;;23.05;;
51384;SDS011;37478;55.682;37.462;2024-03-02T12:10:28;40.63;;;22.55;;
51384;SDS011;37478;55.682;37.462;2024-03-02T12:12:57;42.83;;;23.08;;
51384;SDS011;37478;55.682;37.462;2024-03-02T12:15:24;48.72;;;23.20;;
51384;SDS011;37478;55.682;37.462;2024-03-02T12:17:52;47.47;;;21.83;;
51384;SDS011;37478;55.682;37.462;2024-03-02T12:20:17;41.03;;;21.90;;
51384;SDS011;37478;55.682;37.462;2024-03-02T12:22:43;48.15;;;22.85;;
51384;SDS011;37478;55.682;37.462;2024-03-02T12:25:08;45.05;;;22.20;;
51384;SDS011;37478;55.682;37.462;2024-03-02T12:27:34;40.35;;;23.02;;
51384;SDS011;37478;55.682;37.462;2024-03-02T12:30:01;44.13;;;22.65;;
51384;SDS011;37478;55.682;37.462;2024-03-02T12:32:26;40.72;;;20.60;;
51384;SDS011;37478;55.682;37.462;2024-03-02T12:34:52;36.90;;;20.95;;
51384;SDS011;37478;55.682;37.462;2024-03-02T12:37:18;41.80;;;22.83;;
51384;SDS011;37478;55.682;37.462;2024-03-02T12:39:46;41.33;;;21.20;;
51384;SDS011;37478;55.682;37.462;2024-03-02T12:42:11;34.90;;;19.92;;
51384;SDS011;37478;55.682;37.462;2024-03-02T12:44:37;37.45;;;19.95;;
51384;SDS011;37478;55.682;37.462;2024-03-02T12:47:03;41.47;;;20.85;;
51384;SDS011;37478;55.682;37.462;2024-03-02T12:49:29;37.28;;;20.60;;
51384;SDS011;37478;55.682;37.462;2024-03-02T12:51:55;43.05;;;21.75;;
51384;SDS011;37478;55.682;37.462;2024-03-02T12:54:22;33.75;;;18.65;;
51384;SDS011;37478;55.682;37.462;2024-03-02T12:56:50;37.55;;;20.50;;
51384;SDS011;37478;55.682;37.462;2024-03-02T12:59:18;34.78;;;18.85;;
51384;SDS011;37478;55.682;37.462;2024-03-02T13:01:52;44.42;;;20.95;;
51384;SDS011;37478;55.682;37.462;2024-03-02T13:04:21;43.33;;;20.00;;
51384;SDS011;37478;55.682;37.462;2024-03-02T13:06:46;43.17;;;19.58;;
51384;SDS011;37478;55.682;37.462;2024-03-02T13:09:12;41.72;;;18.55;;
51384;SDS011;37478;55.682;37.462;2024-03-02T13:11:40;40.53;;;19.83;;
51384;SDS011;37478;55.682;37.462;2024-03-02T13:14:05;35.30;;;18.00;;
51384;SDS011;37478;55.682;37.462;2024-03-02T13:16:30;31.25;;;17.90;;
51384;SDS011;37478;55.682;37.462;2024-03-02T13:18:56;31.30;;;16.05;;
51384;SDS011;37478;55.682;37.462;2024-03-02T13:21:21;33.85;;;17.58;;
51384;SDS011;37478;55.682;37.462;2024-03-02T13:23:46;35.15;;;16.88;;
51384;SDS011;37478;55.682;37.462;2024-03-02T13:26:12;30.27;;;17.25;;
51384;SDS011;37478;55.682;37.462;2024-03-02T13:28:38;24.17;;;14.38;;
51384;SDS011;37478;55.682;37.462;2024-03-02T13:31:04;32.50;;;15.63;;
51384;SDS011;37478;55.682;37.462;2024-03-02T13:33:29;32.08;;;15.70;;
51384;SDS011;37478;55.682;37.462;2024-03-02T13:35:56;31.83;;;16.15;;
51384;SDS011;37478;55.682;37.462;2024-03-02T13:38:21;29.50;;;17.33;;
51384;SDS011;37478;55.682;37.462;2024-03-02T13:40:47;33.75;;;17.73;;
51384;SDS011;37478;55.682;37.462;2024-03-02T13:43:16;27.00;;;15.77;;
51384;SDS011;37478;55.682;37.462;2024-03-02T13:45:41;28.75;;;16.17;;
51384;SDS011;37478;55.682;37.462;2024-03-02T13:48:07;31.08;;;15.43;;
51384;SDS011;37478;55.682;37.462;2024-03-02T13:50:32;28.90;;;14.95;;
51384;SDS011;37478;55.682;37.462;2024-03-02T13:52:58;30.27;;;16.92;;
51384;SDS011;37478;55.682;37.462;2024-03-02T13:55:23;27.00;;;14.48;;
51384;SDS011;37478;55.682;37.462;2024-03-02T13:57:49;36.03;;;16.63;;
51384;SDS011;37478;55.682;37.462;2024-03-02T14:00:15;29.13;;;15.65;;
51384;SDS011;37478;55.682;37.462;2024-03-02T14:02:41;36.80;;;14.65;;
51384;SDS011;37478;55.682;37.462;2024-03-02T14:05:06;34.47;;;17.40;;
51384;SDS011;37478;55.682;37.462;2024-03-02T14:07:35;30.25;;;16.73;;
51384;SDS011;37478;55.682;37.462;2024-03-02T14:10:02;30.80;;;14.75;;
51384;SDS011;37478;55.682;37.462;2024-03-02T14:12:28;31.50;;;16.92;;